createdAt,value
2022-08-19T00:02:27.355Z,22.20
2022-08-19T00:04:55.970Z,22.00
2022-08-19T00:07:24.365Z,21.90
2022-08-19T00:09:54.781Z,21.90
2022-08-19T00:14:56.209Z,21.90
2022-08-19T00:17:24.618Z,21.90
2022-08-19T00:19:55.588Z,21.80
2022-08-19T00:22:23.905Z,21.70
2022-08-19T00:24:57.188Z,21.70
2022-08-19T00:27:28.367Z,21.60
2022-08-19T00:29:56.908Z,21.60
2022-08-19T00:32:31.119Z,21.50
2022-08-19T00:35:02.118Z,21.50
2022-08-19T00:37:31.198Z,21.60
2022-08-19T00:40:01.016Z,21.50
2022-08-19T00:42:30.436Z,21.50
2022-08-19T00:45:03.670Z,21.50
2022-08-19T00:52:34.275Z,21.50
2022-08-19T00:55:07.700Z,21.60
2022-08-19T00:57:39.464Z,21.60
2022-08-19T01:00:13.776Z,21.50
2022-08-19T01:02:48.494Z,21.50
2022-08-19T01:05:23.144Z,21.50
2022-08-19T01:10:26.554Z,23.80
2022-08-19T01:12:59.934Z,21.50
2022-08-19T01:15:32.055Z,21.50
2022-08-19T01:18:04.249Z,21.40
2022-08-19T01:20:32.669Z,21.40
2022-08-19T01:25:44.886Z,21.20
2022-08-19T01:28:18.826Z,21.40
2022-08-19T01:31:02.064Z,21.40
2022-08-19T01:33:36.854Z,21.30
2022-08-19T01:36:11.860Z,21.30
2022-08-19T01:38:44.798Z,21.30
2022-08-19T01:41:14.025Z,21.30
2022-08-19T01:44:09.711Z,21.20
2022-08-19T01:46:31.163Z,21.20
2022-08-19T01:48:59.505Z,21.20
2022-08-19T01:51:28.745Z,21.30
2022-08-19T01:54:08.541Z,21.30
2022-08-19T01:56:37.238Z,21.30
2022-08-19T01:59:10.701Z,21.30
2022-08-19T02:01:39.106Z,21.30
2022-08-19T02:04:07.735Z,21.30
2022-08-19T02:06:36.548Z,21.30
2022-08-19T02:09:05.340Z,21.30
2022-08-19T02:11:38.503Z,21.20
2022-08-19T02:14:09.309Z,21.10
2022-08-19T02:16:39.309Z,21.20
2022-08-19T02:19:07.566Z,21.10
2022-08-19T02:21:36.148Z,21.20
2022-08-19T02:24:07.385Z,21.10
2022-08-19T02:26:37.110Z,21.10
2022-08-19T02:29:05.670Z,21.00
2022-08-19T02:31:34.221Z,21.00
2022-08-19T02:34:02.773Z,20.90
2022-08-19T02:36:31.374Z,20.80
2022-08-19T02:38:58.979Z,20.80
2022-08-19T02:41:29.815Z,20.70
2022-08-19T02:44:30.112Z,20.60
2022-08-19T02:46:52.351Z,20.60
2022-08-19T02:49:21.420Z,20.60
2022-08-19T02:51:49.677Z,20.50
2022-08-19T02:54:20.493Z,20.40
2022-08-19T02:56:48.667Z,20.40
2022-08-19T02:59:18.338Z,20.40
2022-08-19T03:01:51.163Z,20.40
2022-08-19T03:04:20.491Z,20.30
2022-08-19T03:06:52.071Z,20.40
2022-08-19T03:09:22.100Z,20.40
2022-08-19T03:11:52.742Z,20.50
2022-08-19T03:14:23.358Z,20.40
2022-08-19T03:16:54.660Z,20.30
2022-08-19T03:19:23.405Z,20.30
2022-08-19T03:21:52.505Z,20.20
2022-08-19T03:24:21.938Z,20.20
2022-08-19T03:26:52.170Z,20.20
2022-08-19T03:29:30.328Z,20.10
2022-08-19T03:31:59.622Z,20.10
2022-08-19T03:34:29.997Z,20.00
2022-08-19T03:37:00.182Z,20.00
2022-08-19T03:39:28.970Z,20.00
2022-08-19T03:42:32.285Z,20.00
2022-08-19T03:44:50.750Z,19.90
2022-08-19T03:47:19.226Z,19.90
2022-08-19T03:49:49.728Z,19.90
2022-08-19T03:52:18.171Z,19.90
2022-08-19T03:54:46.464Z,19.90
2022-08-19T03:57:14.885Z,19.90
2022-08-19T03:59:45.728Z,19.70
2022-08-19T04:02:16.029Z,19.60
2022-08-19T04:04:47.071Z,19.70
2022-08-19T04:07:19.097Z,19.70
2022-08-19T04:09:47.544Z,19.70
2022-08-19T04:12:16.775Z,19.70
2022-08-19T04:14:45.454Z,19.70
2022-08-19T04:17:15.729Z,19.70
2022-08-19T04:19:44.770Z,19.60
2022-08-19T04:22:13.518Z,19.50
2022-08-19T04:24:41.790Z,19.60
2022-08-19T04:27:10.398Z,19.60
2022-08-19T04:29:40.505Z,19.60
2022-08-19T04:32:09.944Z,19.70
2022-08-19T04:35:02.343Z,19.60
2022-08-19T04:37:35.764Z,19.60
2022-08-19T04:40:33.985Z,19.70
2022-08-19T04:43:03.148Z,19.70
2022-08-19T04:45:43.707Z,19.70
2022-08-19T04:48:27.206Z,19.70
2022-08-19T04:50:59.722Z,19.60
2022-08-19T04:53:29.784Z,19.40
2022-08-19T04:56:09.025Z,19.40
2022-08-19T04:58:39.191Z,19.50
2022-08-19T05:01:07.488Z,19.50
2022-08-19T05:03:39.529Z,19.50
2022-08-19T05:06:13.351Z,19.60
2022-08-19T05:08:44.315Z,19.70
2022-08-19T05:11:15.904Z,19.70
2022-08-19T05:13:45.276Z,19.80
2022-08-19T05:16:14.690Z,19.90
2022-08-19T05:19:00.771Z,19.90
2022-08-19T05:21:48.891Z,19.90
2022-08-19T05:24:17.306Z,19.90
2022-08-19T05:26:48.264Z,20.00
2022-08-19T05:29:18.449Z,20.10
2022-08-19T05:31:50.273Z,20.10
2022-08-19T05:34:22.605Z,20.20
2022-08-19T05:36:57.309Z,20.20
2022-08-19T05:39:27.911Z,20.20
2022-08-19T05:41:59.036Z,20.30
2022-08-19T05:44:28.553Z,20.50
2022-08-19T05:46:57.012Z,20.60
2022-08-19T05:49:26.411Z,20.60
2022-08-19T05:51:57.203Z,20.70
2022-08-19T05:54:25.975Z,20.70
2022-08-19T05:56:55.149Z,20.70
2022-08-19T05:59:24.915Z,20.90
2022-08-19T06:01:55.502Z,20.90
2022-08-19T06:04:24.568Z,20.90
2022-08-19T06:06:55.807Z,20.80
2022-08-19T06:09:24.575Z,20.80
2022-08-19T06:11:55.991Z,20.90
2022-08-19T06:14:27.790Z,20.90
2022-08-19T06:17:06.771Z,21.00
2022-08-19T06:19:41.013Z,21.10
2022-08-19T06:22:12.926Z,21.20
2022-08-19T06:24:41.363Z,21.20
2022-08-19T06:27:10.548Z,21.30
2022-08-19T06:29:40.489Z,21.30
2022-08-19T06:32:08.973Z,21.40
2022-08-19T06:34:37.534Z,21.40
2022-08-19T06:37:06.923Z,21.50
2022-08-19T06:39:41.815Z,21.80
2022-08-19T06:42:14.057Z,21.60
2022-08-19T06:44:48.992Z,21.60
2022-08-19T06:47:24.058Z,21.60
2022-08-19T06:50:01.075Z,21.80
2022-08-19T06:52:31.238Z,21.90
2022-08-19T06:55:07.356Z,21.90
2022-08-19T06:57:36.719Z,22.00
2022-08-19T07:00:12.975Z,22.00
2022-08-19T07:02:48.263Z,22.00
2022-08-19T07:07:52.491Z,22.10
2022-08-19T07:10:22.357Z,22.40
2022-08-19T07:12:51.699Z,22.60
2022-08-19T07:15:22.251Z,22.80
2022-08-19T07:17:53.117Z,23.00
2022-08-19T07:20:21.927Z,23.10
2022-08-19T07:22:57.036Z,23.20
2022-08-19T07:25:32.543Z,23.20
2022-08-19T07:28:01.832Z,23.10
2022-08-19T07:30:30.255Z,22.70
2022-08-19T07:35:33.123Z,23.00
2022-08-19T07:38:04.798Z,22.80
2022-08-19T07:40:34.896Z,22.80
2022-08-19T07:43:05.413Z,22.90
2022-08-19T07:45:33.620Z,23.10
2022-08-19T07:48:02.155Z,23.40
2022-08-19T07:50:30.412Z,23.30
2022-08-19T07:52:58.889Z,23.30
2022-08-19T07:55:42.320Z,23.40
2022-08-19T07:58:16.355Z,23.20
2022-08-19T08:00:46.779Z,23.30
2022-08-19T08:03:16.649Z,23.30
2022-08-19T08:06:02.612Z,23.30
2022-08-19T08:08:48.862Z,23.30
2022-08-19T08:11:21.330Z,23.30
2022-08-19T08:14:00.760Z,23.40
2022-08-19T08:16:32.153Z,23.10
2022-08-19T08:19:01.348Z,23.10
2022-08-19T08:21:30.724Z,23.30
2022-08-19T08:26:27.750Z,23.50
2022-08-19T08:28:58.148Z,23.50
2022-08-19T08:31:26.895Z,23.10
2022-08-19T08:33:55.226Z,23.20
2022-08-19T08:36:25.701Z,23.10
2022-08-19T08:41:35.952Z,23.20
2022-08-19T08:44:10.044Z,23.30
2022-08-19T08:46:52.709Z,23.50
2022-08-19T08:49:39.190Z,23.50
2022-08-19T08:52:10.134Z,23.30
2022-08-19T08:54:48.674Z,23.50
2022-08-19T08:57:37.728Z,23.50
2022-08-19T09:00:17.541Z,23.70
2022-08-19T09:02:50.923Z,23.70
2022-08-19T09:05:26.056Z,23.70
2022-08-19T09:08:02.698Z,24.00
2022-08-19T09:10:44.481Z,24.30
2022-08-19T09:13:21.196Z,24.70
2022-08-19T09:15:58.479Z,24.60
2022-08-19T09:18:29.830Z,24.70
2022-08-19T09:20:58.330Z,24.10
2022-08-19T09:23:27.327Z,23.90
2022-08-19T09:28:27.188Z,23.80
2022-08-19T09:30:59.062Z,23.80
2022-08-19T09:33:28.581Z,24.30
2022-08-19T09:36:08.603Z,24.60
2022-08-19T09:38:43.417Z,25.00
2022-08-19T09:41:15.646Z,25.20
2022-08-19T09:43:48.033Z,25.20
2022-08-19T09:46:19.192Z,25.00
2022-08-19T09:48:49.334Z,24.70
2022-08-19T09:51:22.360Z,24.60
2022-08-19T09:53:54.924Z,24.70
2022-08-19T09:56:24.632Z,25.10
2022-08-19T09:58:54.963Z,25.10
2022-08-19T10:01:26.983Z,25.50
2022-08-19T10:03:58.371Z,25.00
2022-08-19T10:06:45.567Z,24.90
2022-08-19T10:09:18.109Z,24.80
2022-08-19T10:12:02.631Z,25.40
2022-08-19T10:14:32.349Z,25.40
2022-08-19T10:17:17.426Z,25.40
2022-08-19T10:19:53.429Z,25.50
2022-08-19T10:22:25.777Z,25.30
2022-08-19T10:24:55.542Z,25.30
2022-08-19T10:27:26.416Z,25.20
2022-08-19T10:29:57.518Z,25.30
2022-08-19T10:32:34.347Z,25.50
2022-08-19T10:35:06.195Z,25.30
2022-08-19T10:37:35.847Z,25.50
2022-08-19T10:40:06.257Z,25.80
2022-08-19T10:42:34.567Z,25.50
2022-08-19T10:45:04.916Z,25.40
2022-08-19T10:47:35.246Z,25.50
2022-08-19T10:50:21.011Z,25.60
2022-08-19T10:52:57.069Z,25.90
2022-08-19T10:55:45.329Z,26.40
2022-08-19T10:58:16.747Z,26.50
2022-08-19T11:00:45.424Z,26.80
2022-08-19T11:03:15.205Z,26.40
2022-08-19T11:05:43.449Z,26.10
2022-08-19T11:08:23.341Z,26.20
2022-08-19T11:11:00.286Z,26.00
2022-08-19T11:13:29.527Z,26.10
2022-08-19T11:16:06.558Z,26.10
2022-08-19T11:18:38.863Z,26.00
2022-08-19T11:21:14.272Z,26.10
2022-08-19T11:23:42.904Z,26.40
2022-08-19T11:26:12.057Z,26.30
2022-08-19T11:28:40.643Z,26.40
2022-08-19T11:31:15.755Z,26.60
2022-08-19T11:33:47.130Z,27.10
2022-08-19T11:36:17.020Z,27.50
2022-08-19T11:38:49.269Z,27.70
2022-08-19T11:41:19.899Z,27.70
2022-08-19T11:43:48.495Z,27.70
2022-08-19T11:46:18.769Z,27.40
2022-08-19T11:48:50.759Z,27.70
2022-08-19T11:51:22.544Z,27.10
2022-08-19T11:53:53.766Z,27.60
2022-08-19T11:56:22.379Z,27.40
2022-08-19T11:58:51.197Z,27.40
2022-08-19T12:01:21.464Z,27.20
2022-08-19T12:03:53.538Z,27.10
2022-08-19T12:06:26.586Z,27.60
2022-08-19T12:08:55.200Z,27.10
2022-08-19T12:11:24.588Z,26.90
2022-08-19T12:13:53.500Z,26.90
2022-08-19T12:16:24.945Z,27.30
2022-08-19T12:18:55.250Z,27.20
2022-08-19T12:21:29.562Z,27.20
2022-08-19T12:24:00.014Z,27.20
2022-08-19T12:26:32.391Z,27.30
2022-08-19T12:29:02.063Z,27.30
2022-08-19T12:31:31.253Z,27.40
2022-08-19T12:34:03.563Z,28.10
2022-08-19T12:36:35.705Z,27.40
2022-08-19T12:39:04.455Z,27.30
2022-08-19T12:41:34.773Z,27.30
2022-08-19T12:44:03.142Z,27.30
2022-08-19T12:46:34.346Z,27.30
2022-08-19T12:49:05.144Z,27.40
2022-08-19T12:51:53.239Z,27.50
2022-08-19T12:54:21.658Z,27.50
2022-08-19T12:56:49.860Z,28.00
2022-08-19T12:59:19.786Z,28.00
2022-08-19T13:01:48.521Z,27.80
2022-08-19T13:04:18.474Z,27.60
2022-08-19T13:06:50.464Z,27.50
2022-08-19T13:09:21.085Z,27.80
2022-08-19T13:11:51.599Z,27.60
2022-08-19T13:14:19.849Z,27.50
2022-08-19T13:16:48.563Z,27.40
2022-08-19T13:19:21.914Z,27.40
2022-08-19T13:21:52.530Z,27.90
2022-08-19T13:24:32.301Z,28.40
2022-08-19T13:27:02.438Z,27.70
2022-08-19T13:29:48.404Z,27.70
2022-08-19T13:32:34.283Z,27.70
2022-08-19T13:35:06.362Z,27.70
2022-08-19T13:37:45.163Z,27.10
2022-08-19T13:40:18.415Z,27.50
2022-08-19T13:42:49.475Z,27.70
2022-08-19T13:45:19.226Z,27.90
2022-08-19T13:47:48.362Z,27.80
2022-08-19T13:50:20.334Z,27.50
2022-08-19T13:52:49.771Z,27.70
2022-08-19T13:55:22.178Z,27.40
2022-08-19T13:57:54.265Z,27.40
2022-08-19T14:00:27.705Z,27.70
2022-08-19T14:02:58.484Z,27.80
2022-08-19T14:05:29.762Z,27.80
2022-08-19T14:07:59.384Z,27.70
2022-08-19T14:10:32.546Z,27.70
2022-08-19T14:13:03.627Z,28.10
2022-08-19T14:15:32.271Z,28.30
2022-08-19T14:18:01.426Z,28.10
2022-08-19T14:20:31.254Z,28.20
2022-08-19T14:23:00.349Z,27.70
2022-08-19T14:25:31.586Z,27.90
2022-08-19T14:28:00.569Z,27.90
2022-08-19T14:30:32.325Z,27.90
2022-08-19T14:33:02.178Z,28.40
2022-08-19T14:35:35.770Z,28.50
2022-08-19T14:38:05.984Z,28.80
2022-08-19T14:40:37.164Z,28.70
2022-08-19T14:43:06.976Z,28.50
2022-08-19T14:45:38.229Z,28.30
2022-08-19T14:48:19.001Z,28.30
2022-08-19T14:50:50.031Z,27.90
2022-08-19T14:53:18.855Z,28.10
2022-08-19T14:55:48.610Z,28.10
2022-08-19T14:58:28.901Z,28.10
2022-08-19T15:01:00.476Z,28.20
2022-08-19T15:03:29.525Z,27.90
2022-08-19T15:06:00.182Z,27.90
2022-08-19T15:08:33.656Z,28.00
2022-08-19T15:11:03.077Z,28.10
2022-08-19T15:13:32.161Z,28.20
2022-08-19T15:16:03.213Z,28.20
2022-08-19T15:18:31.490Z,28.20
2022-08-19T15:21:01.709Z,28.10
2022-08-19T15:23:30.535Z,28.20
2022-08-19T15:26:00.089Z,28.00
2022-08-19T15:28:28.429Z,27.90
2022-08-19T15:30:56.641Z,28.20
2022-08-19T15:33:24.952Z,28.20
2022-08-19T15:35:55.464Z,28.50
2022-08-19T15:38:27.032Z,28.10
2022-08-19T15:41:16.583Z,27.90
2022-08-19T15:43:45.157Z,28.00
2022-08-19T15:46:16.991Z,27.80
2022-08-19T15:48:45.587Z,27.90
2022-08-19T15:51:25.328Z,28.00
2022-08-19T15:53:55.576Z,28.00
2022-08-19T15:56:27.196Z,27.80
2022-08-19T15:59:13.761Z,27.80
2022-08-19T16:02:00.019Z,28.00
2022-08-19T16:04:45.842Z,28.20
2022-08-19T16:07:14.257Z,28.40
2022-08-19T16:09:43.780Z,28.50
2022-08-19T16:12:12.002Z,28.10
2022-08-19T16:14:40.396Z,28.10
2022-08-19T16:17:11.580Z,27.80
2022-08-19T16:19:40.526Z,28.10
2022-08-19T16:22:10.426Z,27.90
2022-08-19T16:24:38.824Z,27.70
2022-08-19T16:27:08.622Z,28.00
2022-08-19T16:29:39.338Z,28.00
2022-08-19T16:32:11.762Z,28.10
2022-08-19T16:34:41.625Z,28.10
2022-08-19T16:37:10.037Z,28.30
2022-08-19T16:39:38.810Z,28.30
2022-08-19T16:42:14.089Z,28.20
2022-08-19T16:44:45.040Z,28.30
2022-08-19T16:47:14.153Z,28.10
2022-08-19T16:49:52.935Z,28.10
2022-08-19T16:52:27.059Z,27.70
2022-08-19T16:54:56.195Z,27.80
2022-08-19T16:57:25.821Z,27.70
2022-08-19T16:59:54.101Z,27.70
2022-08-19T17:02:23.585Z,27.60
2022-08-19T17:04:59.312Z,27.70
2022-08-19T17:07:29.502Z,27.70
2022-08-19T17:10:02.118Z,27.90
2022-08-19T17:12:32.639Z,28.10
2022-08-19T17:15:03.015Z,28.10
2022-08-19T17:17:32.985Z,27.70
2022-08-19T17:20:02.755Z,27.50
2022-08-19T17:22:31.113Z,27.70
2022-08-19T17:24:59.571Z,27.70
2022-08-19T17:27:32.600Z,27.50
2022-08-19T17:30:03.511Z,27.40
2022-08-19T17:32:35.155Z,27.30
2022-08-19T17:35:04.779Z,27.30
2022-08-19T17:37:35.262Z,27.40
2022-08-19T17:40:07.182Z,27.30
2022-08-19T17:42:37.152Z,27.20
2022-08-19T17:45:07.877Z,27.10
2022-08-19T17:47:39.338Z,27.10
2022-08-19T17:50:10.728Z,27.10
2022-08-19T17:52:39.939Z,26.80
2022-08-19T17:55:11.459Z,26.80
2022-08-19T17:57:55.470Z,26.60
2022-08-19T18:00:24.211Z,26.60
2022-08-19T18:03:01.263Z,26.60
2022-08-19T18:05:32.723Z,26.60
2022-08-19T18:08:02.667Z,26.60
2022-08-19T18:10:35.327Z,26.50
2022-08-19T18:13:17.550Z,26.50
2022-08-19T18:15:47.579Z,26.40
2022-08-19T18:18:16.091Z,26.40
2022-08-19T18:20:44.899Z,26.20
2022-08-19T18:23:45.306Z,26.20
2022-08-19T18:26:05.631Z,26.10
2022-08-19T18:28:36.250Z,26.00
2022-08-19T18:31:07.093Z,26.00
2022-08-19T18:33:44.505Z,26.00
2022-08-19T18:36:52.070Z,25.80
2022-08-19T18:39:32.334Z,25.70
2022-08-19T18:42:21.631Z,25.60
2022-08-19T18:45:08.960Z,25.50
2022-08-19T18:47:54.822Z,25.40
2022-08-19T18:50:23.552Z,25.40
2022-08-19T18:55:27.009Z,25.20
2022-08-19T18:57:56.679Z,25.20
2022-08-19T19:00:26.667Z,25.10
2022-08-19T19:02:55.059Z,25.00
2022-08-19T19:05:24.573Z,25.00
2022-08-19T19:07:54.435Z,25.00
2022-08-19T19:10:22.969Z,25.10
2022-08-19T19:12:51.281Z,25.00
2022-08-19T19:15:22.240Z,24.90
2022-08-19T19:17:52.253Z,24.80
2022-08-19T19:20:20.784Z,24.60
2022-08-19T19:22:49.110Z,24.60
2022-08-19T19:25:20.199Z,24.60
2022-08-19T19:27:48.639Z,24.50
2022-08-19T19:30:17.197Z,24.60
2022-08-19T19:32:47.992Z,24.50
2022-08-19T19:35:17.813Z,24.50
2022-08-19T19:37:52.622Z,24.50
2022-08-19T19:40:22.313Z,24.60
2022-08-19T19:42:54.484Z,24.50
2022-08-19T19:45:24.929Z,24.40
2022-08-19T19:47:54.479Z,24.40
2022-08-19T19:50:25.806Z,24.40
2022-08-19T19:53:15.067Z,24.40
2022-08-19T19:58:18.562Z,24.40
2022-08-19T20:00:50.925Z,24.30
2022-08-19T20:03:21.846Z,24.30
2022-08-19T20:05:52.553Z,24.30
2022-08-19T20:11:10.519Z,24.30
2022-08-19T20:13:40.825Z,24.30
2022-08-19T20:16:10.556Z,24.40
2022-08-19T20:18:55.848Z,24.40
2022-08-19T20:21:31.370Z,24.40
2022-08-19T20:24:10.385Z,24.40
2022-08-19T20:26:44.945Z,24.50
2022-08-19T20:29:39.184Z,24.50
2022-08-19T20:32:07.534Z,24.50
2022-08-19T20:34:35.933Z,24.30
2022-08-19T20:37:36.347Z,24.30
2022-08-19T20:40:05.825Z,24.30
2022-08-19T20:42:35.543Z,24.30
2022-08-19T20:45:19.695Z,24.30
2022-08-19T20:47:58.121Z,24.20
2022-08-19T20:50:30.266Z,24.20
2022-08-19T20:53:01.698Z,24.30
2022-08-19T20:55:30.622Z,24.30
2022-08-19T20:57:59.883Z,24.10
2022-08-19T21:00:29.547Z,24.10
2022-08-19T21:02:58.323Z,24.00
2022-08-19T21:08:00.534Z,23.90
2022-08-19T21:15:26.289Z,23.80
2022-08-19T21:17:54.767Z,23.80
2022-08-19T21:22:52.628Z,23.70
2022-08-19T21:25:22.637Z,23.60
2022-08-19T21:27:51.046Z,23.40
2022-08-19T21:30:19.549Z,23.40
2022-08-19T21:32:51.969Z,23.30
2022-08-19T21:35:25.660Z,23.30
2022-08-19T21:37:54.394Z,23.20
2022-08-19T21:40:29.094Z,23.20
2022-08-19T21:42:57.535Z,23.20
2022-08-19T21:45:26.098Z,23.20
2022-08-19T21:47:54.372Z,23.10
2022-08-19T21:50:28.201Z,23.10
2022-08-19T21:52:56.904Z,23.30
2022-08-19T21:55:26.928Z,23.00
2022-08-19T21:58:00.051Z,22.90
2022-08-19T22:00:30.367Z,23.00
2022-08-19T22:03:03.906Z,23.00
2022-08-19T22:05:33.533Z,23.00
2022-08-19T22:08:04.772Z,23.10
2022-08-19T22:10:35.287Z,23.20
2022-08-19T22:13:04.469Z,23.10
2022-08-19T22:15:33.415Z,23.10
2022-08-19T22:18:02.334Z,23.20
2022-08-19T22:20:32.844Z,23.20
2022-08-19T22:23:06.479Z,23.20
2022-08-19T22:25:39.606Z,23.20
2022-08-19T22:28:13.975Z,23.20
2022-08-19T22:30:44.567Z,23.20
2022-08-19T22:33:16.948Z,23.10
2022-08-19T22:35:46.838Z,23.00
2022-08-19T22:38:15.902Z,23.10
2022-08-19T22:40:48.424Z,23.00
2022-08-19T22:43:18.178Z,23.00
2022-08-19T22:45:49.948Z,23.00
2022-08-19T22:48:21.976Z,23.00
2022-08-19T22:51:12.880Z,23.00
2022-08-19T22:53:43.573Z,23.00
2022-08-19T22:56:15.452Z,22.90
2022-08-19T22:58:44.037Z,23.30
2022-08-19T23:01:14.654Z,22.70
2022-08-19T23:03:56.625Z,22.70
2022-08-19T23:06:27.977Z,22.90
2022-08-19T23:09:04.748Z,22.80
2022-08-19T23:11:38.243Z,22.90
2022-08-19T23:14:12.591Z,22.90
2022-08-19T23:16:41.781Z,23.00
2022-08-19T23:19:10.984Z,22.90
2022-08-19T23:21:39.579Z,22.90
2022-08-19T23:27:05.377Z,22.90
2022-08-19T23:29:50.988Z,22.90
2022-08-19T23:32:20.415Z,23.00
2022-08-19T23:34:49.294Z,22.90
2022-08-19T23:37:17.632Z,22.90
2022-08-19T23:39:45.929Z,22.90
2022-08-19T23:42:15.928Z,23.00
2022-08-19T23:44:51.492Z,23.10
2022-08-19T23:47:21.264Z,23.10
2022-08-19T23:49:49.668Z,23.10
2022-08-19T23:52:20.480Z,23.20
2022-08-19T23:54:50.973Z,23.30
2022-08-19T23:57:20.560Z,23.30
2022-08-19T23:59:48.752Z,23.30
